createdAt,value
2018-12-23T00:02:30.943Z,2.40
2018-12-23T00:05:00.646Z,1.93
2018-12-23T00:07:30.980Z,2.50
2018-12-23T00:10:02.997Z,2.67
2018-12-23T00:12:34.017Z,2.10
2018-12-23T00:15:05.095Z,2.13
2018-12-23T00:17:35.451Z,2.33
2018-12-23T00:20:06.605Z,2.20
2018-12-23T00:22:37.004Z,2.30
2018-12-23T00:25:06.598Z,2.20
2018-12-23T00:27:37.621Z,2.30
2018-12-23T00:30:08.432Z,2.40
2018-12-23T00:34:51.106Z,2.53
2018-12-23T00:37:24.933Z,2.40
2018-12-23T00:39:58.158Z,2.30
2018-12-23T00:42:28.238Z,2.43
2018-12-23T00:44:59.336Z,2.50
2018-12-23T00:47:28.968Z,3.00
2018-12-23T00:49:59.874Z,2.40
2018-12-23T00:52:29.430Z,2.83
2018-12-23T00:54:59.216Z,2.50
2018-12-23T00:57:29.735Z,3.23
2018-12-23T00:59:59.355Z,2.77
2018-12-23T01:02:29.666Z,3.37
2018-12-23T01:04:59.886Z,2.93
2018-12-23T01:07:29.779Z,2.73
2018-12-23T01:09:59.545Z,2.50
2018-12-23T01:12:29.102Z,2.73
2018-12-23T01:14:58.760Z,2.30
2018-12-23T01:17:28.382Z,2.80
2018-12-23T01:19:58.493Z,2.73
2018-12-23T01:22:28.212Z,3.20
2018-12-23T01:24:58.121Z,2.73
2018-12-23T01:27:27.684Z,3.20
2018-12-23T01:29:57.425Z,2.90
2018-12-23T01:32:27.005Z,2.60
2018-12-23T01:34:57.706Z,3.20
2018-12-23T01:37:28.342Z,3.03
2018-12-23T01:39:58.570Z,2.40
2018-12-23T01:42:28.134Z,3.10
2018-12-23T01:44:58.847Z,2.83
2018-12-23T01:47:29.778Z,2.50
2018-12-23T01:50:00.271Z,2.47
2018-12-23T01:52:29.857Z,3.30
2018-12-23T01:54:59.497Z,3.20
2018-12-23T01:57:29.887Z,3.10
2018-12-23T01:59:59.935Z,3.17
2018-12-23T02:02:29.554Z,3.53
2018-12-23T02:04:59.726Z,3.10
2018-12-23T02:07:29.279Z,3.37
2018-12-23T02:09:58.876Z,3.37
2018-12-23T02:12:30.002Z,3.13
2018-12-23T02:15:01.001Z,2.77
2018-12-23T02:17:30.734Z,3.20
2018-12-23T02:20:00.771Z,3.00
2018-12-23T02:22:30.349Z,3.20
2018-12-23T02:24:59.944Z,3.90
2018-12-23T02:27:29.852Z,3.30
2018-12-23T02:29:59.434Z,3.57
2018-12-23T02:32:29.019Z,3.23
2018-12-23T02:34:59.370Z,3.80
2018-12-23T02:37:29.336Z,3.30
2018-12-23T02:39:59.175Z,3.37
2018-12-23T02:42:28.733Z,3.57
2018-12-23T02:44:59.801Z,3.43
2018-12-23T02:47:29.364Z,3.60
2018-12-23T02:49:58.921Z,3.17
2018-12-23T02:52:28.954Z,3.20
2018-12-23T02:54:58.550Z,3.20
2018-12-23T02:57:28.189Z,3.60
2018-12-23T02:59:57.921Z,2.83
2018-12-23T03:02:27.429Z,3.07
2018-12-23T03:04:56.990Z,3.37
2018-12-23T03:07:26.523Z,3.17
2018-12-23T03:09:56.552Z,4.00
2018-12-23T03:12:26.086Z,3.90
2018-12-23T03:14:55.690Z,3.63
2018-12-23T03:17:25.346Z,3.17
2018-12-23T03:19:55.367Z,3.20
2018-12-23T03:22:24.976Z,3.80
2018-12-23T03:24:55.163Z,4.20
2018-12-23T03:27:25.094Z,3.97
2018-12-23T03:29:54.934Z,3.63
2018-12-23T03:32:24.524Z,3.17
2018-12-23T03:34:54.067Z,3.60
2018-12-23T03:37:24.134Z,3.53
2018-12-23T03:39:53.681Z,3.63
2018-12-23T03:42:23.283Z,3.80
2018-12-23T03:44:53.228Z,3.53
2018-12-23T03:47:23.614Z,3.87
2018-12-23T03:49:54.162Z,3.83
2018-12-23T03:52:24.271Z,3.17
2018-12-23T03:54:53.921Z,3.27
2018-12-23T03:57:23.595Z,3.83
2018-12-23T03:59:53.163Z,3.63
2018-12-23T04:02:23.403Z,3.63
2018-12-23T04:04:52.921Z,4.27
2018-12-23T04:07:22.759Z,4.40
2018-12-23T04:09:53.696Z,3.80
2018-12-23T04:12:23.301Z,4.00
2018-12-23T04:14:52.880Z,3.50
2018-12-23T04:17:22.591Z,3.70
2018-12-23T04:19:52.500Z,3.10
2018-12-23T04:22:22.022Z,3.57
2018-12-23T04:24:51.634Z,3.93
2018-12-23T04:27:21.191Z,3.90
2018-12-23T04:29:50.756Z,3.70
2018-12-23T04:32:20.368Z,3.53
2018-12-23T04:34:51.320Z,3.60
2018-12-23T04:37:20.870Z,3.80
2018-12-23T04:39:50.397Z,4.07
2018-12-23T04:42:20.444Z,3.60
2018-12-23T04:44:49.952Z,4.43
2018-12-23T04:47:19.499Z,3.87
2018-12-23T04:49:49.818Z,4.03
2018-12-23T04:52:19.457Z,3.80
2018-12-23T04:54:49.833Z,3.70
2018-12-23T04:57:19.662Z,4.27
2018-12-23T04:59:50.599Z,3.53
2018-12-23T05:02:20.128Z,3.63
2018-12-23T05:04:49.748Z,4.43
2018-12-23T05:07:19.748Z,3.97
2018-12-23T05:09:50.589Z,4.40
2018-12-23T05:12:20.106Z,4.00
2018-12-23T05:14:53.636Z,4.17
2018-12-23T05:17:24.412Z,3.97
2018-12-23T05:20:01.896Z,4.57
2018-12-23T05:22:32.548Z,4.00
2018-12-23T05:25:03.354Z,3.83
2018-12-23T05:27:32.886Z,3.90
2018-12-23T05:30:03.150Z,4.37
2018-12-23T05:32:32.789Z,3.50
2018-12-23T05:35:03.406Z,4.23
2018-12-23T05:37:32.948Z,3.73
2018-12-23T05:40:03.029Z,4.17
2018-12-23T05:42:32.550Z,4.03
2018-12-23T05:45:02.187Z,3.80
2018-12-23T05:47:38.160Z,3.83
2018-12-23T05:50:08.052Z,3.70
2018-12-23T05:52:37.618Z,3.97
2018-12-23T05:55:07.608Z,3.70
2018-12-23T05:57:37.174Z,3.90
2018-12-23T06:00:06.806Z,3.80
2018-12-23T06:02:36.368Z,3.37
2018-12-23T06:05:06.505Z,3.70
2018-12-23T06:07:36.087Z,3.70
2018-12-23T06:10:06.622Z,4.07
2018-12-23T06:12:36.307Z,3.50
2018-12-23T06:15:06.042Z,4.70
2018-12-23T06:17:35.738Z,4.07
2018-12-23T06:20:05.260Z,3.60
2018-12-23T06:22:34.761Z,3.53
2018-12-23T06:25:04.996Z,3.63
2018-12-23T06:27:34.560Z,3.73
2018-12-23T06:30:04.277Z,3.80
2018-12-23T06:32:33.850Z,3.60
2018-12-23T06:35:03.830Z,3.60
2018-12-23T06:37:33.353Z,3.90
2018-12-23T06:40:03.272Z,3.17
2018-12-23T06:42:33.583Z,3.40
2018-12-23T06:45:03.833Z,3.90
2018-12-23T06:47:33.593Z,3.90
2018-12-23T06:50:04.470Z,4.53
2018-12-23T06:52:34.038Z,3.63
2018-12-23T06:55:03.930Z,3.47
2018-12-23T06:57:33.568Z,3.40
2018-12-23T07:00:04.339Z,4.10
2018-12-23T07:02:33.949Z,3.80
2018-12-23T07:05:07.437Z,3.97
2018-12-23T07:07:38.063Z,3.77
2018-12-23T07:10:08.914Z,3.73
2018-12-23T07:12:38.887Z,3.80
2018-12-23T07:15:08.511Z,3.73
2018-12-23T07:17:38.151Z,3.57
2018-12-23T07:22:48.212Z,3.23
2018-12-23T07:25:17.812Z,3.47
2018-12-23T07:27:48.212Z,3.60
2018-12-23T07:30:20.196Z,3.63
2018-12-23T07:32:49.801Z,3.23
2018-12-23T07:35:19.758Z,3.90
2018-12-23T07:37:49.385Z,3.70
2018-12-23T07:40:19.438Z,3.40
2018-12-23T07:42:49.944Z,3.97
2018-12-23T07:45:22.173Z,3.40
2018-12-23T07:47:52.415Z,3.03
2018-12-23T07:50:23.077Z,3.40
2018-12-23T07:52:52.988Z,3.13
2018-12-23T07:55:22.818Z,3.33
2018-12-23T07:57:52.376Z,3.90
2018-12-23T08:00:25.712Z,3.40
2018-12-23T08:02:55.307Z,3.70
2018-12-23T08:05:27.139Z,3.87
2018-12-23T08:07:57.667Z,3.33
2018-12-23T08:10:29.550Z,3.60
2018-12-23T08:12:59.102Z,3.03
2018-12-23T08:15:28.647Z,3.37
2018-12-23T08:18:00.330Z,2.93
2018-12-23T08:20:30.174Z,3.60
2018-12-23T08:23:03.444Z,2.87
2018-12-23T08:25:35.661Z,4.13
2018-12-23T08:28:11.635Z,3.30
2018-12-23T08:30:42.090Z,3.50
2018-12-23T08:33:14.491Z,2.93
2018-12-23T08:35:50.508Z,4.73
2018-12-23T08:38:21.201Z,3.03
2018-12-23T08:40:54.454Z,3.80
2018-12-23T08:43:25.933Z,5.13
2018-12-23T08:45:58.186Z,8.00
2018-12-23T08:48:29.614Z,3.00
2018-12-23T08:50:59.928Z,2.80
2018-12-23T08:53:32.226Z,3.00
2018-12-23T08:56:01.887Z,3.23
2018-12-23T08:58:32.230Z,4.27
2018-12-23T09:03:54.530Z,3.60
2018-12-23T09:06:25.231Z,3.33
2018-12-23T09:08:58.588Z,2.70
2018-12-23T09:11:28.495Z,2.60
2018-12-23T09:13:58.059Z,3.20
2018-12-23T09:16:27.600Z,6.33
2018-12-23T09:18:58.273Z,3.20
2018-12-23T09:21:29.902Z,2.50
2018-12-23T09:23:59.607Z,2.73
2018-12-23T09:26:29.146Z,2.83
2018-12-23T09:28:59.029Z,2.60
2018-12-23T09:31:29.114Z,5.87
2018-12-23T09:33:58.718Z,2.30
2018-12-23T09:36:29.241Z,2.20
2018-12-23T09:38:59.496Z,2.60
2018-12-23T09:41:29.584Z,2.63
2018-12-23T09:43:59.826Z,2.73
2018-12-23T09:46:29.322Z,2.50
2018-12-23T09:48:59.355Z,2.20
2018-12-23T09:51:31.515Z,2.80
2018-12-23T09:54:04.673Z,2.30
2018-12-23T09:56:34.666Z,2.97
2018-12-23T09:59:05.971Z,2.93
2018-12-23T10:01:35.829Z,2.53
2018-12-23T10:04:06.387Z,2.93
2018-12-23T10:06:39.431Z,3.13
2018-12-23T10:09:09.960Z,2.77
2018-12-23T10:11:39.930Z,2.57
2018-12-23T10:14:12.379Z,2.70
2018-12-23T10:16:41.969Z,3.40
2018-12-23T10:19:11.527Z,2.33
2018-12-23T10:21:42.978Z,2.60
2018-12-23T10:24:13.354Z,2.40
2018-12-23T10:26:45.831Z,2.90
2018-12-23T10:29:16.013Z,2.77
2018-12-23T10:31:45.690Z,2.70
2018-12-23T10:34:15.711Z,3.13
2018-12-23T10:36:45.498Z,3.10
2018-12-23T10:39:15.375Z,2.90
2018-12-23T10:41:45.524Z,2.83
2018-12-23T10:44:15.822Z,3.20
2018-12-23T10:46:46.769Z,2.70
2018-12-23T10:49:16.292Z,2.63
2018-12-23T10:51:46.530Z,2.63
2018-12-23T10:54:16.133Z,3.30
2018-12-23T10:56:46.197Z,2.47
2018-12-23T10:59:16.110Z,2.50
2018-12-23T11:07:52.411Z,2.30
2018-12-23T11:10:23.537Z,2.73
2018-12-23T11:12:53.490Z,2.50
2018-12-23T11:15:24.259Z,3.47
2018-12-23T11:18:25.813Z,2.70
2018-12-23T11:20:55.581Z,2.93
2018-12-23T11:23:25.141Z,2.80
2018-12-23T11:25:56.764Z,3.00
2018-12-23T11:28:27.594Z,2.50
2018-12-23T11:30:58.954Z,2.53
2018-12-23T11:33:29.685Z,2.50
2018-12-23T11:36:09.152Z,3.17
2018-12-23T11:38:39.079Z,2.80
2018-12-23T11:41:09.101Z,2.70
2018-12-23T11:43:40.413Z,2.60
2018-12-23T11:46:11.058Z,2.40
2018-12-23T11:48:41.276Z,2.37
2018-12-23T11:51:14.200Z,2.47
2018-12-23T11:53:44.563Z,2.50
2018-12-23T11:56:15.873Z,2.10
2018-12-23T11:58:46.278Z,2.63
2018-12-23T12:01:18.754Z,2.13
2018-12-23T12:04:06.891Z,3.77
2018-12-23T12:06:37.671Z,2.67
2018-12-23T12:09:11.885Z,2.80
2018-12-23T12:11:41.725Z,2.77
2018-12-23T12:14:11.519Z,2.83
2018-12-23T12:16:46.211Z,2.70
2018-12-23T12:19:20.506Z,2.70
2018-12-23T12:21:50.122Z,2.67
2018-12-23T12:24:24.117Z,2.87
2018-12-23T12:26:54.967Z,3.10
2018-12-23T12:29:27.029Z,2.70
2018-12-23T12:31:58.035Z,2.63
2018-12-23T12:34:28.731Z,4.17
2018-12-23T12:36:58.469Z,2.70
2018-12-23T12:39:28.299Z,2.60
2018-12-23T12:42:08.720Z,2.73
2018-12-23T12:44:42.678Z,3.10
2018-12-23T12:47:24.233Z,2.57
2018-12-23T12:49:55.365Z,2.77
2018-12-23T12:52:26.539Z,2.50
2018-12-23T12:54:57.433Z,2.90
2018-12-23T12:57:27.540Z,3.47
2018-12-23T12:59:58.818Z,2.70
2018-12-23T13:02:33.833Z,2.80
2018-12-23T13:05:04.041Z,2.80
2018-12-23T13:07:47.814Z,2.50
2018-12-23T13:10:18.542Z,2.80
2018-12-23T13:12:51.683Z,2.23
2018-12-23T13:15:23.835Z,2.53
2018-12-23T13:17:57.163Z,2.43
2018-12-23T13:20:28.353Z,2.37
2018-12-23T13:22:59.532Z,2.40
2018-12-23T13:25:30.928Z,2.20
2018-12-23T13:28:00.983Z,2.70
2018-12-23T13:30:31.510Z,2.30
2018-12-23T13:33:07.039Z,2.87
2018-12-23T13:35:42.500Z,2.37
2018-12-23T13:45:09.784Z,2.50
2018-12-23T13:47:55.258Z,2.63
2018-12-23T13:50:35.819Z,2.27
2018-12-23T13:53:18.210Z,2.03
2018-12-23T13:58:03.153Z,2.20
2018-12-23T14:00:43.426Z,2.80
2018-12-23T14:03:56.861Z,2.80
2018-12-23T14:07:43.262Z,2.97
2018-12-23T14:10:25.537Z,2.73
2018-12-23T14:12:57.566Z,2.37
2018-12-23T14:15:34.982Z,2.80
2018-12-23T14:18:10.522Z,2.17
2018-12-23T14:20:48.592Z,2.33
2018-12-23T14:23:31.951Z,2.20
2018-12-23T14:26:01.992Z,2.80
2018-12-23T14:28:33.017Z,3.10
2018-12-23T14:31:08.456Z,5.00
2018-12-23T14:33:39.119Z,4.10
2018-12-23T14:36:10.098Z,5.03
2018-12-23T14:38:40.403Z,5.03
2018-12-23T14:41:10.160Z,4.60
2018-12-23T14:43:40.127Z,4.50
2018-12-23T14:46:13.024Z,3.93
2018-12-23T14:48:48.520Z,3.87
2018-12-23T14:51:21.734Z,3.00
2018-12-23T14:53:54.572Z,2.67
2018-12-23T14:56:31.550Z,4.30
2018-12-23T14:59:09.285Z,5.90
2018-12-23T15:01:38.823Z,5.20
2018-12-23T15:04:08.770Z,5.20
2018-12-23T15:06:39.599Z,3.90
2018-12-23T15:09:10.374Z,4.13
2018-12-23T15:11:47.810Z,3.23
2018-12-23T15:14:18.708Z,4.30
2018-12-23T15:16:55.642Z,4.00
2018-12-23T15:19:25.801Z,4.20
2018-12-23T15:21:55.610Z,4.77
2018-12-23T15:24:25.476Z,5.20
2018-12-23T15:26:55.026Z,5.30
2018-12-23T15:29:24.548Z,5.60
2018-12-23T15:34:40.755Z,6.47
2018-12-23T15:37:11.465Z,6.23
2018-12-23T15:39:42.731Z,14.83
2018-12-23T15:46:43.418Z,11.23
2018-12-23T15:55:16.690Z,3.30
2018-12-23T15:58:24.280Z,2.67
2018-12-23T16:01:26.619Z,3.40
2018-12-23T16:09:51.202Z,3.83
2018-12-23T16:12:21.167Z,4.10
2018-12-23T16:15:11.428Z,3.83
2018-12-23T16:27:33.869Z,2.90
2018-12-23T16:33:08.933Z,3.90
2018-12-23T16:38:51.113Z,4.60
2018-12-23T16:41:21.152Z,4.13
2018-12-23T16:44:11.788Z,3.10
2018-12-23T16:46:41.659Z,3.13
2018-12-23T16:49:30.743Z,3.50
2018-12-23T16:55:09.397Z,3.20
2018-12-23T17:00:45.301Z,4.00
2018-12-23T17:03:15.182Z,3.27
2018-12-23T17:08:54.658Z,2.90
2018-12-23T17:14:22.594Z,3.30
2018-12-23T17:17:12.190Z,2.90
2018-12-23T17:19:42.027Z,2.90
2018-12-23T17:22:14.286Z,3.03
2018-12-23T17:25:03.318Z,2.90
2018-12-23T17:30:28.983Z,2.93
2018-12-23T17:33:17.709Z,2.77
2018-12-23T17:35:48.997Z,2.60
2018-12-23T17:38:19.096Z,2.83
2018-12-23T17:41:08.163Z,2.80
2018-12-23T17:43:37.982Z,3.07
2018-12-23T17:49:35.553Z,3.00
2018-12-23T17:52:44.675Z,2.80
2018-12-23T17:55:15.419Z,2.93
2018-12-23T18:01:10.471Z,3.10
2018-12-23T18:03:40.164Z,3.10
2018-12-23T18:06:29.458Z,2.90
2018-12-23T18:09:19.365Z,3.00
2018-12-23T18:11:51.988Z,3.20
2018-12-23T18:14:32.903Z,2.80
2018-12-23T18:17:14.397Z,2.80
2018-12-23T18:23:33.687Z,3.07
2018-12-23T18:26:03.667Z,3.10
2018-12-23T18:28:33.427Z,3.17
2018-12-23T18:31:03.502Z,3.37
2018-12-23T18:39:56.329Z,3.30
2018-12-23T18:42:45.165Z,3.33
2018-12-23T18:45:14.972Z,3.43
2018-12-23T18:50:52.762Z,3.50
2018-12-23T18:56:29.510Z,3.27
2018-12-23T18:59:37.959Z,2.93
2018-12-23T19:02:11.088Z,3.17
2018-12-23T19:05:02.883Z,3.23
2018-12-23T19:07:33.322Z,2.97
2018-12-23T19:10:29.573Z,3.73
2018-12-23T19:13:37.316Z,2.93
2018-12-23T19:16:45.215Z,2.60
2018-12-23T19:19:55.476Z,2.53
2018-12-23T19:23:06.527Z,2.87
2018-12-23T19:26:14.267Z,2.30
2018-12-23T19:29:22.227Z,2.53
2018-12-23T19:36:03.170Z,2.20
2018-12-23T19:39:10.998Z,2.03
2018-12-23T19:42:13.198Z,2.20
2018-12-23T19:45:20.891Z,2.47
2018-12-23T19:48:29.558Z,2.07
2018-12-23T19:51:39.574Z,2.33
2018-12-23T19:54:47.658Z,1.90
2018-12-23T20:01:09.459Z,2.03
2018-12-23T20:04:18.148Z,2.03
2018-12-23T20:07:26.168Z,2.00
2018-12-23T20:10:34.032Z,1.93
2018-12-23T20:13:42.200Z,1.53
2018-12-23T20:20:26.550Z,1.90
2018-12-23T20:23:55.187Z,1.90
2018-12-23T20:26:52.934Z,1.80
2018-12-23T20:30:02.308Z,2.20
2018-12-23T20:33:10.441Z,2.40
2018-12-23T20:36:18.274Z,2.17
2018-12-23T20:39:26.248Z,2.30
2018-12-23T20:42:34.228Z,2.43
2018-12-23T20:45:44.554Z,2.20
2018-12-23T20:48:25.633Z,2.53
2018-12-23T20:51:33.426Z,2.10
2018-12-23T20:54:41.466Z,2.50
2018-12-23T20:57:39.397Z,2.20
2018-12-23T21:01:08.896Z,2.50
2018-12-23T21:10:55.329Z,3.03
2018-12-23T21:13:50.242Z,3.47
2018-12-23T21:20:24.922Z,4.07
2018-12-23T21:26:48.470Z,3.83
2018-12-23T21:30:29.791Z,3.90
2018-12-23T21:33:18.197Z,3.40
2018-12-23T21:36:19.222Z,3.27
2018-12-23T21:39:27.078Z,3.60
2018-12-23T21:42:35.360Z,3.67
2018-12-23T21:48:29.847Z,2.93
2018-12-23T21:51:38.790Z,2.87
2018-12-23T21:58:14.721Z,3.00
2018-12-23T22:01:25.787Z,1.50
2018-12-23T22:04:33.654Z,1.40
2018-12-23T22:07:41.850Z,1.23
2018-12-23T22:10:34.568Z,1.57
2018-12-23T22:13:42.668Z,1.50
2018-12-23T22:16:12.660Z,1.60
2018-12-23T22:18:42.933Z,1.30
2018-12-23T22:21:54.280Z,1.40
2018-12-23T22:26:59.511Z,1.30
2018-12-23T22:29:48.834Z,1.27
2018-12-23T22:32:18.576Z,1.50
2018-12-23T22:35:07.532Z,1.47
2018-12-23T22:37:56.415Z,1.40
2018-12-23T22:43:22.380Z,1.50
2018-12-23T22:48:28.752Z,1.53
2018-12-23T22:54:07.710Z,1.50
2018-12-23T22:56:57.161Z,1.60
2018-12-23T22:59:26.916Z,1.40
2018-12-23T23:02:08.310Z,1.47
2018-12-23T23:04:39.931Z,1.43
2018-12-23T23:10:05.994Z,0.80
2018-12-23T23:15:43.362Z,0.90
2018-12-23T23:18:13.282Z,1.10
2018-12-23T23:20:43.297Z,0.90
2018-12-23T23:23:32.365Z,0.70
2018-12-23T23:26:02.109Z,1.20
2018-12-23T23:28:31.829Z,1.10
2018-12-23T23:31:01.646Z,0.93
2018-12-23T23:33:50.992Z,0.80
2018-12-23T23:36:21.012Z,1.27
2018-12-23T23:38:50.798Z,0.97
2018-12-23T23:41:59.887Z,1.00
2018-12-23T23:44:29.623Z,1.00
2018-12-23T23:50:13.409Z,1.00
2018-12-23T23:52:43.184Z,1.20
2018-12-23T23:55:32.236Z,1.00
2018-12-23T23:58:01.973Z,0.97
